Time;durP1;ratioP1;P1;durP2;ratioP2;P2;SDS_P1;SDS_P2;PMS_P1;PMS_P2;Temp;Humidity;BMP_temperature;BMP_pressure;BME280_temperature;BME280_humidity;BME280_pressure;Samples;Min_cycle;Max_cycle;Signal;HPM_P1;HPM_P2
2021/11/16 00:00:20;;;;;;;5.53;2.15;;;;;;;-3.07;68.61;101650.34;4955510;29;20130;-68
2021/11/16 00:02:46;;;;;;;6.65;2.78;;;;;;;-3.04;69.06;101660.72;4955975;29;20114;-67
2021/11/16 00:05:12;;;;;;;6.70;2.55;;;;;;;-3.07;68.78;101658.13;4955041;29;20412;-68
2021/11/16 00:07:38;;;;;;;5.07;3.28;;;;;;;-3.05;68.98;101659.88;4955727;29;20047;-68
2021/11/16 00:10:05;;;;;;;7.47;2.83;;;;;;;-3.09;69.43;101655.50;4955399;29;20118;-68
2021/11/16 00:12:31;;;;;;;7.43;2.83;;;;;;;-3.11;68.85;101664.97;4955806;29;20078;-66
2021/11/16 00:14:57;;;;;;;6.25;2.35;;;;;;;-3.13;69.62;101657.22;4955456;29;20074;-67
2021/11/16 00:17:26;;;;;;;8.52;3.55;;;;;;;-3.07;69.48;101656.38;4953970;28;20047;-69
2021/11/16 00:19:51;;;;;;;;;;;;;;;-3.06;69.45;101644.34;4955962;29;20151;-67
2021/11/16 00:22:19;;;;;;;4.70;2.08;;;;;;;-3.16;69.46;101646.81;4955434;29;20016;-68
2021/11/16 00:25:07;;;;;;;10.13;2.72;;;;;;;-3.22;69.88;101633.78;4955295;29;20103;-67
2021/11/16 00:27:34;;;;;;;8.88;2.88;;;;;;;-3.23;70.02;101629.47;4955471;29;20051;-66
2021/11/16 00:30:00;;;;;;;8.73;3.35;;;;;;;-3.29;69.63;101624.22;4955198;29;20035;-69
2021/11/16 00:32:26;;;;;;;6.07;3.13;;;;;;;-3.29;70.04;101619.94;4954464;29;20047;-66
2021/11/16 00:34:52;;;;;;;5.47;2.70;;;;;;;-3.33;70.07;101622.44;4955499;29;20098;-66
2021/11/16 00:37:25;;;;;;;8.02;2.30;;;;;;;-3.34;70.11;101625.88;4954934;29;20066;-68
2021/11/16 00:39:59;;;;;;;7.35;2.60;;;;;;;-3.34;70.64;101625.88;4954807;29;20043;-66
2021/11/16 00:42:26;;;;;;;4.50;2.25;;;;;;;-3.42;70.66;101621.47;4955396;29;20047;-67
2021/11/16 00:44:52;;;;;;;7.10;2.92;;;;;;;-3.38;70.77;101624.13;4955175;29;20063;-66
2021/11/16 00:47:18;;;;;;;5.70;2.40;;;;;;;-3.41;70.82;101622.38;4955155;29;20149;-70
2021/11/16 00:49:45;;;;;;;5.47;2.58;;;;;;;-3.42;70.80;101624.06;4937944;29;20114;-67
2021/11/16 00:52:11;;;;;;;7.85;3.13;;;;;;;-3.37;70.84;101615.50;4954436;29;20535;-66
2021/11/16 00:54:37;;;;;;;15.40;4.00;;;;;;;-3.38;70.88;101616.34;4954764;29;20038;-66
2021/11/16 00:57:04;;;;;;;7.82;2.97;;;;;;;-3.35;70.41;101618.97;4953922;29;20584;-68
2021/11/16 00:59:31;;;;;;;7.43;2.85;;;;;;;-3.38;70.62;101614.63;4955129;29;20047;-67
2021/11/16 01:01:59;;;;;;;8.20;2.30;;;;;;;-3.35;70.82;101609.50;4954337;29;20481;-67
2021/11/16 01:04:28;;;;;;;5.57;2.40;;;;;;;-3.38;70.22;101612.03;4954941;29;20137;-69
2021/11/16 01:06:55;;;;;;;4.82;2.55;;;;;;;-3.40;70.34;101603.41;4954484;29;20055;-67
2021/11/16 01:09:22;;;;;;;11.23;3.20;;;;;;;-3.38;71.13;101593.94;4954200;29;20039;-69
2021/11/16 01:11:48;;;;;;;8.20;2.90;;;;;;;-3.33;70.70;101594.00;4954812;29;20129;-67
2021/11/16 01:14:14;;;;;;;4.85;2.22;;;;;;;-3.40;70.22;101590.47;4954302;29;20709;-68
2021/11/16 01:16:41;;;;;;;4.05;1.63;;;;;;;-3.41;70.78;101575.81;4937264;29;20520;-66
2021/11/16 01:19:07;;;;;;;3.97;1.90;;;;;;;-3.41;70.38;101583.56;4954321;29;20049;-68
2021/11/16 01:21:35;;;;;;;4.07;1.50;;;;;;;-3.43;70.45;101574.91;4954126;29;20051;-67
2021/11/16 01:24:02;;;;;;;2.97;1.60;;;;;;;-3.48;70.83;101572.25;4954472;29;20046;-68
2021/11/16 01:26:27;;;;;;;5.35;1.73;;;;;;;-3.45;70.93;101563.66;4954525;29;20050;-67
2021/11/16 01:28:55;;;;;;;4.65;1.80;;;;;;;-3.44;71.13;101563.72;4936749;29;20074;-69
2021/11/16 01:31:21;;;;;;;2.75;1.27;;;;;;;-3.50;71.06;101568.81;4953958;29;20090;-65
2021/11/16 01:33:54;;;;;;;4.85;1.70;;;;;;;-3.55;71.06;101554.06;4953968;29;20075;-68
2021/11/16 01:36:24;;;;;;;4.55;1.55;;;;;;;-3.63;71.44;101556.56;4937021;29;20127;-70
2021/11/16 01:38:51;;;;;;;4.68;1.80;;;;;;;-3.60;71.45;101556.59;4953832;29;20122;-69
2021/11/16 01:41:18;;;;;;;3.40;1.38;;;;;;;-3.61;71.30;101544.53;4953553;29;20075;-66
2021/11/16 01:43:44;;;;;;;2.97;1.30;;;;;;;-3.66;71.03;101552.25;4954257;29;20047;-67
2021/11/16 01:46:13;;;;;;;3.65;1.30;;;;;;;-3.63;71.37;101543.66;4953968;29;20098;-67
2021/11/16 01:48:42;;;;;;;2.75;1.05;;;;;;;-3.60;71.32;101538.50;4953942;29;20094;-68
2021/11/16 01:51:09;;;;;;;5.72;1.23;;;;;;;-3.58;71.44;101529.94;4953311;29;20102;-69
2021/11/16 01:53:35;;;;;;;2.83;1.30;;;;;;;-3.55;71.57;101523.94;4953983;29;20090;-70
2021/11/16 01:56:01;;;;;;;3.72;1.10;;;;;;;-3.51;70.93;101530.00;4953663;29;20095;-67
2021/11/16 01:58:27;;;;;;;4.00;1.45;;;;;;;-3.36;71.30;101524.13;4954033;29;20071;-67
2021/11/16 02:00:54;;;;;;;2.75;1.05;;;;;;;-3.23;70.40;101518.19;4953212;29;20047;-66
2021/11/16 02:03:21;;;;;;;4.43;1.40;;;;;;;-3.11;70.34;101514.88;4953810;29;20139;-68
2021/11/16 02:05:51;;;;;;;4.40;1.42;;;;;;;-2.93;70.07;101514.16;4953942;29;20122;-68
2021/11/16 02:08:18;;;;;;;2.33;1.00;;;;;;;-2.73;69.51;101516.91;4936919;29;20051;-69
2021/11/16 02:10:46;;;;;;;3.47;1.33;;;;;;;-2.64;68.38;101521.31;4936858;29;20062;-67
2021/11/16 02:13:12;;;;;;;;;;;;;;;-2.63;68.42;101507.47;4955370;29;20047;-67
2021/11/16 02:15:38;;;;;;;3.60;1.25;;;;;;;-2.49;68.26;101503.28;4954905;29;20364;-69
2021/11/16 02:18:06;;;;;;;4.97;1.80;;;;;;;-2.50;67.91;101496.34;4954542;29;20707;-68
2021/11/16 02:20:32;;;;;;;2.28;1.17;;;;;;;-2.48;67.86;101502.41;4953694;29;20043;-68
2021/11/16 02:22:58;;;;;;;4.25;1.38;;;;;;;-2.47;68.14;101504.16;4952946;29;20176;-69
2021/11/16 02:25:25;;;;;;;4.80;1.50;;;;;;;-2.36;68.04;101505.94;4953206;29;20065;-66
2021/11/16 02:27:50;;;;;;;2.22;1.20;;;;;;;-2.39;67.59;101501.59;4953048;29;20058;-66
2021/11/16 02:30:20;;;;;;;3.72;1.77;;;;;;;-2.55;67.51;101500.63;4935716;29;20039;-67
2021/11/16 02:32:46;;;;;;;5.82;1.63;;;;;;;-2.62;67.77;101493.69;4953148;29;20043;-67
2021/11/16 02:35:15;;;;;;;3.80;1.75;;;;;;;-2.62;68.39;101494.56;4953023;29;20126;-67
2021/11/16 02:37:41;;;;;;;3.58;1.10;;;;;;;-2.56;67.91;101491.13;4952809;29;20046;-67
2021/11/16 02:40:08;;;;;;;3.83;1.40;;;;;;;-2.53;67.90;101493.75;4951818;28;20416;-71
2021/11/16 02:42:35;;;;;;;3.38;1.30;;;;;;;-2.41;67.43;101490.34;4953118;29;20525;-68
2021/11/16 02:45:02;;;;;;;2.45;1.02;;;;;;;-2.26;67.24;101492.16;4953379;29;20098;-68
2021/11/16 02:47:27;;;;;;;4.40;1.20;;;;;;;-2.15;66.73;101487.91;4953227;29;20051;-68
2021/11/16 02:49:56;;;;;;;5.32;1.40;;;;;;;-2.14;66.37;101474.09;4935969;29;20043;-69
2021/11/16 02:52:23;;;;;;;3.80;1.48;;;;;;;-2.06;66.51;101473.25;4952773;29;20047;-67
2021/11/16 02:54:50;;;;;;;4.47;1.20;;;;;;;-2.00;66.25;101473.28;4953075;29;20047;-67
2021/11/16 02:57:16;;;;;;;3.05;1.02;;;;;;;-2.04;66.22;101467.22;4935657;29;20144;-69
2021/11/16 02:59:42;;;;;;;2.25;1.33;;;;;;;-1.97;66.16;101462.91;4953260;29;20583;-68
2021/11/16 03:02:12;;;;;;;2.20;1.08;;;;;;;-2.01;65.82;101459.44;4952721;29;20087;-68
2021/11/16 03:04:44;;;;;;;3.17;1.52;;;;;;;-2.00;65.85;101457.72;4952735;29;20043;-66
2021/11/16 03:07:33;;;;;;;4.22;1.73;;;;;;;-1.91;65.82;101462.94;4935686;29;20054;-68
2021/11/16 03:09:59;;;;;;;2.27;1.27;;;;;;;-2.02;66.10;101446.47;4952978;29;20519;-66
2021/11/16 03:12:29;;;;;;;3.40;1.60;;;;;;;-1.94;65.72;101442.19;4951742;29;20050;-69
2021/11/16 03:14:55;;;;;;;4.15;1.50;;;;;;;-2.00;65.70;101432.66;4953194;29;20773;-68
2021/11/16 03:17:23;;;;;;;13.05;5.05;;;;;;;-2.12;66.09;101437.81;4952770;29;20043;-68
2021/11/16 03:19:49;;;;;;;6.40;3.05;;;;;;;-2.04;65.77;101422.31;4935528;29;20524;-64
2021/11/16 03:22:15;;;;;;;3.70;1.77;;;;;;;-2.13;65.78;101421.41;4951485;29;20070;-68
2021/11/16 03:24:42;;;;;;;2.67;1.13;;;;;;;-2.12;66.16;101428.31;4919761;29;20047;-66
2021/11/16 03:27:11;;;;;;;5.78;1.90;;;;;;;-2.07;66.21;101419.69;4952643;29;20054;-67
2021/11/16 03:29:44;;;;;;;4.60;1.85;;;;;;;-2.04;66.22;101409.34;4952661;29;20134;-67
2021/11/16 03:32:12;;;;;;;6.05;1.60;;;;;;;-1.93;66.18;101407.63;4934210;29;20134;-67
2021/11/16 03:34:44;;;;;;;4.88;1.55;;;;;;;-1.94;66.01;101398.13;4952463;29;20050;-71
2021/11/16 03:37:10;;;;;;;439.30;127.68;;;;;;;-1.90;65.97;101402.44;4952184;29;20047;-67
2021/11/16 03:39:37;;;;;;;5.60;3.33;;;;;;;-1.94;65.86;101405.91;4952664;29;20051;-67
2021/11/16 03:42:04;;;;;;;3.85;1.45;;;;;;;-1.95;66.11;101401.56;4952766;29;20079;-70
2021/11/16 03:44:30;;;;;;;7.88;1.58;;;;;;;-1.89;65.93;101398.16;4952249;29;20078;-68
2021/11/16 03:46:56;;;;;;;3.88;1.48;;;;;;;-1.82;65.86;101399.88;4952069;29;20130;-69
2021/11/16 03:49:22;;;;;;;5.40;1.75;;;;;;;-1.87;65.62;101396.41;4935025;29;20134;-70
2021/11/16 03:51:48;;;;;;;5.88;1.95;;;;;;;-1.87;65.81;101392.09;4953355;28;20039;-68
2021/11/16 03:54:14;;;;;;;4.05;1.67;;;;;;;-1.85;65.41;101395.53;4955673;29;20054;-68
2021/11/16 03:56:40;;;;;;;7.57;2.00;;;;;;;-1.84;65.50;101388.66;4955497;29;20059;-68
2021/11/16 03:59:07;;;;;;;6.85;2.17;;;;;;;-1.80;65.38;101387.78;4955605;29;20101;-68
2021/11/16 04:01:34;;;;;;;4.10;1.70;;;;;;;-1.83;65.67;101367.91;4955422;29;20121;-66
2021/11/16 04:04:01;;;;;;;2.03;1.20;;;;;;;-1.88;65.50;101371.31;4955480;29;20425;-70
2021/11/16 04:06:27;;;;;;;3.72;1.77;;;;;;;-1.85;65.61;101364.41;4955235;29;20143;-70
2021/11/16 04:08:53;;;;;;;9.10;1.52;;;;;;;-1.92;65.43;101362.66;4939012;29;20063;-67
2021/11/16 04:11:19;;;;;;;3.13;1.38;;;;;;;-1.90;65.93;101352.31;4954330;29;20043;-68
2021/11/16 04:13:46;;;;;;;4.05;1.33;;;;;;;-1.86;65.95;101347.13;4955117;29;20175;-65
2021/11/16 04:16:11;;;;;;;4.95;1.60;;;;;;;-1.95;65.74;101352.31;4954824;29;20130;-69
2021/11/16 04:18:37;;;;;;;3.58;1.40;;;;;;;-2.01;66.31;101331.56;4938432;29;20437;-68
2021/11/16 04:21:04;;;;;;;3.10;1.13;;;;;;;-1.96;65.87;101335.03;4954806;29;20558;-70
2021/11/16 04:23:30;;;;;;;3.33;1.40;;;;;;;-1.91;65.80;101332.44;4955052;29;20053;-68
2021/11/16 04:25:58;;;;;;;6.68;1.70;;;;;;;-1.85;65.50;101322.94;4958126;28;20039;-69
2021/11/16 04:28:24;;;;;;;4.72;1.67;;;;;;;-1.93;65.84;101324.66;4955035;28;20046;-69
2021/11/16 04:30:54;;;;;;;4.43;1.73;;;;;;;-1.93;65.97;101316.88;4961485;28;20047;-68
2021/11/16 04:33:21;;;;;;;5.85;2.53;;;;;;;-1.89;65.83;101315.16;4955534;28;20043;-67
2021/11/16 04:35:48;;;;;;;7.25;2.25;;;;;;;-1.85;65.82;101312.56;4964708;28;20519;-69
2021/11/16 04:38:16;;;;;;;4.13;1.45;;;;;;;-1.93;65.86;101303.03;4956291;28;20055;-67
2021/11/16 04:40:45;;;;;;;7.85;1.63;;;;;;;-2.16;66.20;101299.56;4939164;28;20071;-68
2021/11/16 04:43:18;;;;;;;;;;;;;;;-2.34;66.65;101299.53;4949112;28;20074;-68
2021/11/16 04:45:45;;;;;;;9.38;1.83;;;;;;;-2.41;67.28;101302.97;4957292;28;19922;-68
2021/11/16 04:48:27;;;;;;;38.90;8.60;;;;;;;-2.54;67.31;101313.28;4962040;28;20039;-70
2021/11/16 04:53:50;;;;;;;10.40;1.75;;;;;;;-2.58;68.02;101319.28;4954929;28;20556;-68
2021/11/16 04:59:34;;;;;;;13.02;2.95;;;;;;;-2.45;67.83;101304.69;4904427;29;20046;-68
2021/11/16 05:04:45;;;;;;;6.05;2.03;;;;;;;-2.55;67.79;101293.41;4954877;29;20106;-67
2021/11/16 05:07:17;;;;;;;5.30;2.30;;;;;;;-2.68;68.17;101294.22;4954459;29;20054;-68
2021/11/16 05:09:56;;;;;;;7.95;3.63;;;;;;;-2.76;68.63;101289.88;4954720;29;20070;-67
2021/11/16 05:12:24;;;;;;;6.20;2.63;;;;;;;-2.87;68.67;101275.19;4937429;29;20067;-68
2021/11/16 05:14:50;;;;;;;6.38;2.30;;;;;;;-2.88;68.88;101263.09;4937553;29;20049;-68
2021/11/16 05:17:16;;;;;;;6.38;2.00;;;;;;;-2.97;69.04;101266.50;4954608;29;20073;-67
2021/11/16 05:19:42;;;;;;;3.78;2.13;;;;;;;-2.98;69.53;101257.00;4954867;29;20567;-68
2021/11/16 05:22:08;;;;;;;3.47;2.03;;;;;;;-2.96;69.56;101265.66;4953322;29;20039;-70
2021/11/16 05:24:34;;;;;;;7.00;2.20;;;;;;;-3.01;69.17;101257.00;4937710;29;20094;-68
2021/11/16 05:27:00;;;;;;;4.03;1.85;;;;;;;-2.96;69.40;101255.28;4954245;29;20055;-68
2021/11/16 05:29:26;;;;;;;4.82;2.15;;;;;;;-2.98;69.36;101251.81;4953877;29;20053;-67
2021/11/16 05:31:52;;;;;;;4.50;2.20;;;;;;;-2.91;69.58;101252.72;4937046;29;20125;-67
2021/11/16 05:34:18;;;;;;;8.63;2.45;;;;;;;-2.95;69.60;101244.94;4936836;29;20119;-68
2021/11/16 05:36:44;;;;;;;9.07;2.47;;;;;;;-2.85;69.44;101256.19;4936932;29;20091;-69
2021/11/16 05:39:10;;;;;;;4.38;1.70;;;;;;;-2.88;69.50;101248.41;4953946;29;20043;-68
2021/11/16 05:41:37;;;;;;;4.72;2.20;;;;;;;-2.79;69.11;101240.69;4954082;29;20047;-67
2021/11/16 05:44:03;;;;;;;7.63;2.85;;;;;;;-2.80;68.92;101245.88;4953738;29;20138;-67
2021/11/16 05:46:29;;;;;;;89.95;22.27;;;;;;;-2.78;69.19;101244.13;4953767;29;20066;-69
2021/11/16 05:48:56;;;;;;;4.35;1.88;;;;;;;-2.78;68.97;101252.78;4954458;29;20054;-69
2021/11/16 05:51:24;;;;;;;9.45;3.42;;;;;;;-2.78;69.27;101245.00;4953201;29;20512;-70
2021/11/16 05:54:28;;;;;;;;;;;;;;;-2.70;69.12;101260.56;4953768;29;20047;-65
2021/11/16 05:56:43;;;;;;;10.93;3.90;;;;;;;-2.62;68.86;101260.59;4934213;29;19953;-68
2021/11/16 05:59:08;;;;;;;5.85;2.30;;;;;;;-2.66;69.08;101257.13;4953781;29;20062;-69
2021/11/16 06:01:35;;;;;;;4.85;2.22;;;;;;;-2.55;68.44;101245.94;4953404;29;20055;-68
2021/11/16 06:04:00;;;;;;;8.32;1.95;;;;;;;-2.33;68.22;101246.84;4957239;28;20061;-68
2021/11/16 06:06:28;;;;;;;51.03;14.02;;;;;;;-2.25;67.81;101244.28;4962157;28;20051;-71
2021/11/16 06:08:56;;;;;;;4.95;1.95;;;;;;;-2.36;67.92;101232.16;4944747;29;20043;-66
2021/11/16 06:11:25;;;;;;;4.78;1.67;;;;;;;-2.35;67.78;101222.66;4952232;29;20378;-68
2021/11/16 06:13:53;;;;;;;34.60;10.57;;;;;;;-2.13;67.65;101207.97;4960731;28;20058;-69
2021/11/16 06:16:19;;;;;;;2.80;1.43;;;;;;;-1.88;66.86;101206.25;4935109;29;20078;-68
2021/11/16 06:18:54;;;;;;;8.68;2.38;;;;;;;-1.64;66.12;101201.91;4956094;28;20121;-67
2021/11/16 06:21:21;;;;;;;12.30;2.88;;;;;;;-1.50;65.66;101207.91;4962909;28;20046;-68
2021/11/16 06:23:47;;;;;;;3.15;1.63;;;;;;;-1.22;64.71;101210.44;4961367;28;20047;-67
2021/11/16 06:26:13;;;;;;;12.95;6.05;;;;;;;-1.22;64.37;101210.44;4953020;29;20101;-69
2021/11/16 06:28:40;;;;;;;6.30;1.88;;;;;;;-1.15;64.24;101204.38;4953309;29;20047;-69
2021/11/16 06:31:08;;;;;;;8.68;2.58;;;;;;;-1.26;63.97;101200.06;4965161;28;20051;-69
2021/11/16 06:33:34;;;;;;;5.68;2.47;;;;;;;-1.27;64.41;101207.00;4935309;29;20047;-68
2021/11/16 06:36:00;;;;;;;10.40;3.22;;;;;;;-1.19;63.98;101194.00;4952240;29;20039;-69
2021/11/16 06:38:26;;;;;;;7.38;2.25;;;;;;;-1.00;63.82;101194.75;4932625;29;20432;-68
2021/11/16 06:40:52;;;;;;;82.80;25.13;;;;;;;-0.56;62.67;101175.47;4948002;29;20098;-67
2021/11/16 06:43:31;;;;;;;16.25;5.78;;;;;;;-0.06;61.38;101175.09;4934290;29;20051;-70
2021/11/16 06:46:00;;;;;;;8.75;3.60;;;;;;;1.01;59.86;101161.78;4952827;29;20456;-70
2021/11/16 06:48:26;;;;;;;;;;;;;;;1.82;57.67;101158.84;4952988;29;20047;-67
2021/11/16 06:50:53;;;;;;;5.93;2.97;;;;;;;2.30;55.41;101157.97;4935782;29;20482;-67
2021/11/16 06:53:24;;;;;;;13.55;3.22;;;;;;;2.89;54.05;101167.25;4936401;29;20050;-68
2021/11/16 06:55:50;;;;;;;6.40;2.28;;;;;;;3.45;52.25;101155.59;4952266;29;20043;-72
2021/11/16 06:58:16;;;;;;;4.97;2.72;;;;;;;4.32;51.16;101157.75;4934333;29;20039;-72
2021/11/16 07:00:41;;;;;;;14.18;4.72;;;;;;;4.60;48.21;101153.50;4952159;29;20101;-67
2021/11/16 07:03:08;;;;;;;8.90;3.33;;;;;;;5.08;48.31;101141.63;4952671;29;20055;-69
2021/11/16 07:05:35;;;;;;;6.82;3.30;;;;;;;4.95;47.96;101141.16;4935678;29;20047;-68
2021/11/16 07:08:01;;;;;;;12.40;4.22;;;;;;;5.53;47.18;101145.50;4953235;29;20101;-71
2021/11/16 07:10:31;;;;;;;6.03;3.60;;;;;;;5.42;46.54;101146.69;4953111;29;20574;-70
2021/11/16 07:13:06;;;;;;;6.10;3.00;;;;;;;5.82;45.56;101158.50;4936184;29;20039;-71
2021/11/16 07:15:33;;;;;;;6.95;3.25;;;;;;;5.49;45.00;101155.22;4952841;29;20047;-69
2021/11/16 07:18:05;;;;;;;11.90;3.78;;;;;;;5.02;46.66;101130.44;4952741;29;20082;-68
2021/11/16 07:20:32;;;;;;;8.95;3.13;;;;;;;5.11;46.22;101126.66;4952736;29;20058;-67
2021/11/16 07:22:58;;;;;;;8.20;2.63;;;;;;;5.50;45.58;101136.78;4935929;29;20039;-67
2021/11/16 07:25:25;;;;;;;6.22;2.60;;;;;;;6.18;44.66;101123.22;4919637;28;20054;-70
2021/11/16 07:27:54;;;;;;;11.52;4.70;;;;;;;6.39;43.20;101116.31;4938824;29;20049;-68
2021/11/16 07:30:26;;;;;;;31.88;4.10;;;;;;;6.27;43.59;101133.38;4956285;29;20572;-68
2021/11/16 07:32:54;;;;;;;10.88;3.10;;;;;;;6.77;42.58;101132.44;4956688;29;20051;-69
2021/11/16 07:35:29;;;;;;;5.72;3.05;;;;;;;7.23;42.00;101121.06;4956105;29;20412;-70
2021/11/16 07:37:59;;;;;;;9.25;3.40;;;;;;;7.11;41.93;101114.50;4956364;29;20079;-72
2021/11/16 07:40:26;;;;;;;13.52;5.28;;;;;;;7.26;40.95;101134.09;4939422;29;20043;-69
2021/11/16 07:42:55;;;;;;;5.90;3.05;;;;;;;8.06;39.78;101129.94;4923499;29;20501;-68
2021/11/16 07:45:23;;;;;;;6.47;3.63;;;;;;;8.55;38.53;101127.81;4923739;29;20082;-69
2021/11/16 07:47:54;;;;;;;18.50;5.10;;;;;;;8.36;38.59;101117.22;4957235;29;20047;-73
2021/11/16 07:50:37;;;;;;;14.23;3.72;;;;;;;8.82;37.28;101119.56;4923805;29;20086;-69
2021/11/16 07:53:09;;;;;;;23.92;6.20;;;;;;;8.72;38.38;101120.91;4940235;29;20059;-68
2021/11/16 07:55:35;;;;;;;14.55;4.78;;;;;;;9.28;36.97;101116.50;4924150;29;20047;-70
2021/11/16 07:58:05;;;;;;;17.42;4.18;;;;;;;9.78;36.32;101114.09;4908276;29;20054;-75
2021/11/16 08:00:33;;;;;;;15.43;3.75;;;;;;;9.88;34.96;101102.97;4924031;29;20063;-70
2021/11/16 08:03:04;;;;;;;12.18;4.57;;;;;;;9.06;36.73;101098.22;4957718;29;20063;-68
2021/11/16 08:10:44;;;;;;;16.20;4.68;;;;;;;8.84;37.16;101120.34;4956290;29;20050;-68
2021/11/16 08:13:20;;;;;;;12.23;3.53;;;;;;;8.68;36.75;101117.53;4956397;29;20043;-67
2021/11/16 08:15:46;;;;;;;8.25;3.78;;;;;;;7.92;37.89;101110.31;4956129;29;20065;-68
2021/11/16 08:18:15;;;;;;;22.13;5.93;;;;;;;7.84;38.74;101103.63;4939364;29;20404;-69
2021/11/16 08:20:44;;;;;;;20.20;7.15;;;;;;;7.81;38.49;101082.72;4939346;29;20141;-68
2021/11/16 08:23:10;;;;;;;15.73;5.72;;;;;;;8.04;38.30;101079.94;4938625;29;20051;-69
2021/11/16 08:25:40;;;;;;;17.60;7.05;;;;;;;8.13;37.59;101086.59;4955792;29;20055;-69
2021/11/16 08:28:14;;;;;;;12.90;5.43;;;;;;;9.02;36.92;101070.25;4956012;29;20142;-70
2021/11/16 08:30:40;;;;;;;14.57;6.68;;;;;;;9.34;36.16;101073.13;4955720;29;20054;-67
2021/11/16 08:33:06;;;;;;;18.85;5.55;;;;;;;9.26;35.93;101064.72;4938574;29;20051;-67
2021/11/16 08:35:32;;;;;;;28.75;8.30;;;;;;;8.97;36.08;101069.63;4922250;29;20106;-71
2021/11/16 08:38:07;;;;;;;26.08;7.82;;;;;;;10.14;35.11;101063.78;4955146;28;20412;-69
2021/11/16 08:40:36;;;;;;;22.27;6.80;;;;;;;9.77;34.80;101070.97;4922342;29;20036;-68
2021/11/16 08:43:14;;;;;;;27.90;10.77;;;;;;;9.20;35.23;101064.09;4939002;29;20512;-70
2021/11/16 08:45:46;;;;;;;37.55;13.50;;;;;;;8.83;35.64;101068.50;4938302;29;20552;-71
2021/11/16 08:48:17;;;;;;;25.58;9.20;;;;;;;9.30;35.63;101063.66;4955553;29;20102;-70
2021/11/16 08:50:44;;;;;;;42.90;8.43;;;;;;;8.20;36.37;101055.53;4938246;29;20047;-70
2021/11/16 08:53:14;;;;;;;45.05;15.43;;;;;;;7.46;37.98;101049.06;4955478;29;20536;-70
2021/11/16 08:55:41;;;;;;;15.50;5.82;;;;;;;6.56;39.07;101047.34;4938313;29;20500;-68
2021/11/16 08:58:12;;;;;;;12.52;5.00;;;;;;;5.61;41.27;101049.00;4955906;29;20543;-68
2021/11/16 09:00:41;;;;;;;9.80;4.65;;;;;;;4.88;42.45;101053.09;4938569;29;20047;-69
2021/11/16 09:03:09;;;;;;;10.02;3.47;;;;;;;4.24;43.70;101036.66;4955484;28;20082;-72
2021/11/16 09:05:44;;;;;;;12.77;3.92;;;;;;;3.70;45.29;101030.25;4921069;29;20039;-70
2021/11/16 09:08:14;;;;;;;11.75;4.72;;;;;;;3.06;47.02;101024.00;4954272;29;20043;-70
2021/11/16 09:10:43;;;;;;;14.88;4.95;;;;;;;2.74;48.29;101014.31;4954639;29;20043;-68
2021/11/16 09:13:11;;;;;;;27.20;5.30;;;;;;;2.52;49.19;101000.91;4954446;29;20047;-70
2021/11/16 09:15:49;;;;;;;11.32;3.33;;;;;;;1.99;50.26;100998.53;4948731;29;20070;-69
2021/11/16 09:18:28;;;;;;;16.38;4.32;;;;;;;2.26;51.16;100995.31;4951607;29;20047;-70
2021/11/16 09:21:08;;;;;;;15.43;4.78;;;;;;;2.45;49.75;100983.63;4936257;29;20194;-71
2021/11/16 09:23:39;;;;;;;9.52;4.15;;;;;;;2.95;49.58;100988.59;4937275;29;20056;-69
2021/11/16 09:26:18;;;;;;;9.30;3.50;;;;;;;3.48;47.99;100993.38;4920254;29;20047;-69
2021/11/16 09:28:50;;;;;;;12.13;3.30;;;;;;;3.87;47.03;100990.56;4936178;29;20044;-68
2021/11/16 09:31:40;;;;;;;6.43;2.72;;;;;;;3.82;46.77;100987.22;4935248;29;20044;-70
2021/11/16 09:34:21;;;;;;;11.93;3.17;;;;;;;3.42;47.21;100985.69;4935194;29;20035;-69
2021/11/16 09:36:58;;;;;;;30.90;7.68;;;;;;;3.20;48.41;100970.53;4935310;29;20473;-73
2021/11/16 09:39:34;;;;;;;15.80;3.97;;;;;;;3.39;48.14;100963.94;4935440;29;20122;-72
2021/11/16 09:42:05;;;;;;;14.73;4.85;;;;;;;3.99;47.51;100961.41;4935940;29;20043;-69
2021/11/16 09:44:34;;;;;;;30.55;9.07;;;;;;;5.06;45.52;100958.13;4935558;29;20484;-71
2021/11/16 09:47:05;;;;;;;24.25;7.82;;;;;;;5.84;43.20;100956.28;4918617;29;20142;-69
2021/11/16 09:49:31;;;;;;;7.57;3.45;;;;;;;6.48;42.22;100960.06;4918056;29;20436;-73
2021/11/16 09:52:05;;;;;;;15.88;3.58;;;;;;;6.89;41.38;100965.44;4918175;29;20050;-69
2021/11/16 09:54:31;;;;;;;17.75;3.70;;;;;;;7.45;39.91;100963.09;4935533;29;20044;-69
2021/11/16 09:57:14;;;;;;;10.93;3.42;;;;;;;7.41;39.85;100961.53;4935275;29;20055;-70
2021/11/16 09:59:43;;;;;;;10.40;3.97;;;;;;;7.49;39.43;100953.28;4935089;29;20044;-72
2021/11/16 10:02:16;;;;;;;17.65;5.38;;;;;;;6.67;40.59;100948.78;4934713;29;20070;-74
2021/11/16 10:04:49;;;;;;;24.85;7.43;;;;;;;7.03;40.25;100951.72;4935087;29;20108;-68
2021/11/16 10:07:15;;;;;;;12.88;4.15;;;;;;;7.41;39.23;100940.47;4933032;29;20090;-69
2021/11/16 10:09:42;;;;;;;6.63;3.78;;;;;;;7.24;39.39;100936.81;4935980;29;20652;-69
2021/11/16 10:12:09;;;;;;;22.35;6.18;;;;;;;7.23;39.33;100932.44;4902870;29;20043;-71
2021/11/16 10:14:34;;;;;;;23.33;7.82;;;;;;;7.27;38.89;100923.50;4934346;29;20583;-70
2021/11/16 10:17:00;;;;;;;15.63;5.53;;;;;;;7.40;38.48;100920.34;4935378;29;20051;-68
2021/11/16 10:19:26;;;;;;;15.13;5.45;;;;;;;7.41;38.55;100916.78;4917641;29;20041;-71
2021/11/16 10:21:52;;;;;;;17.38;6.28;;;;;;;7.41;38.52;100907.13;4935110;29;20524;-69
2021/11/16 10:24:33;;;;;;;12.93;3.63;;;;;;;7.15;38.55;100924.03;4949505;28;20386;-74
2021/11/16 10:27:22;;;;;;;9.32;3.95;;;;;;;6.85;39.20;100913.88;4933840;29;20552;-69
2021/11/16 10:30:07;;;;;;;7.55;3.13;;;;;;;6.59;39.51;100913.19;4934359;29;20052;-72
2021/11/16 10:32:33;;;;;;;13.32;4.38;;;;;;;6.92;39.24;100906.59;4917670;29;20044;-68
2021/11/16 10:35:09;;;;;;;9.27;3.20;;;;;;;6.72;39.24;100907.44;4946818;29;20047;-69
2021/11/16 10:37:56;;;;;;;10.25;2.95;;;;;;;6.26;40.30;100910.97;4953578;29;20513;-71
2021/11/16 10:40:24;;;;;;;13.63;3.30;;;;;;;6.20;39.47;100895.44;4953603;29;20507;-71
2021/11/16 10:42:53;;;;;;;8.45;3.55;;;;;;;5.56;41.30;100885.56;4953545;29;20050;-68
2021/11/16 10:45:21;;;;;;;10.18;3.47;;;;;;;5.34;41.93;100897.69;4953211;29;20493;-69
2021/11/16 10:47:48;;;;;;;8.23;3.65;;;;;;;5.62;41.89;100888.84;4953583;29;20138;-70
2021/11/16 10:50:17;;;;;;;16.17;3.85;;;;;;;6.39;40.26;100895.59;4953217;29;20062;-69
2021/11/16 10:52:44;;;;;;;11.48;3.80;;;;;;;5.80;40.61;100904.81;4953470;29;20381;-70
2021/11/16 10:55:11;;;;;;;8.27;3.60;;;;;;;5.50;41.62;100895.38;4935982;29;20150;-72
2021/11/16 10:57:57;;;;;;;5.43;3.03;;;;;;;5.69;41.44;100891.25;4952888;29;20488;-71
2021/11/16 11:00:37;;;;;;;15.70;5.03;;;;;;;5.55;41.35;100892.59;4936089;28;20508;-70
2021/11/16 11:03:29;;;;;;;13.57;3.42;;;;;;;5.56;41.54;100889.06;4957279;29;20141;-70
2021/11/16 11:05:57;;;;;;;10.55;3.63;;;;;;;4.56;42.94;100875.03;4957442;29;20059;-69
2021/11/16 11:08:50;;;;;;;11.25;3.60;;;;;;;3.69;44.90;100882.91;4956787;29;20059;-69
2021/11/16 11:11:20;;;;;;;12.60;3.67;;;;;;;3.18;46.16;100875.63;4954426;29;20779;-69
2021/11/16 11:13:56;;;;;;;6.88;3.40;;;;;;;2.87;47.21;100877.28;4957028;29;20512;-68
2021/11/16 11:16:23;;;;;;;13.63;3.47;;;;;;;2.65;47.89;100874.34;4956937;29;20135;-70
2021/11/16 11:18:49;;;;;;;14.85;4.20;;;;;;;2.38;48.20;100866.28;4939661;29;20058;-69
2021/11/16 11:21:32;;;;;;;21.35;5.10;;;;;;;2.22;49.10;100862.34;4956934;29;20055;-71
2021/11/16 11:24:06;;;;;;;17.83;4.47;;;;;;;2.04;49.52;100854.00;4956946;29;20098;-68
2021/11/16 11:26:42;;;;;;;8.65;3.63;;;;;;;2.06;49.89;100857.44;4956497;29;20583;-70
2021/11/16 11:32:08;;;;;;;17.40;5.25;;;;;;;1.95;50.44;100854.22;4956946;29;20427;-73
2021/11/16 11:34:42;;;;;;;13.65;4.10;;;;;;;1.77;50.67;100845.91;4956615;29;20047;-71
2021/11/16 11:37:13;;;;;;;95.28;23.42;;;;;;;1.63;51.81;100847.94;4939272;29;20122;-69
2021/11/16 11:39:39;;;;;;;11.18;4.00;;;;;;;1.67;51.18;100852.22;4956540;29;20377;-70
2021/11/16 11:42:09;;;;;;;11.50;4.20;;;;;;;1.60;50.91;100850.63;4956691;29;20055;-68
2021/11/16 11:44:45;;;;;;;19.48;5.18;;;;;;;1.77;51.25;100851.13;4923401;29;20054;-73
2021/11/16 11:47:22;;;;;;;25.52;7.72;;;;;;;1.87;50.51;100854.41;4923769;29;20061;-71
2021/11/16 11:49:48;;;;;;;15.85;6.28;;;;;;;1.59;51.55;100851.50;4938745;29;20077;-74
2021/11/16 11:52:14;;;;;;;13.43;5.25;;;;;;;1.50;51.93;100856.94;4948569;29;20062;-71